sensor_id;sensor_type;location;lat;lon;timestamp;P1;durP1;ratioP1;P2;durP2;ratioP2
4021;SDS011;2025;48.260;16.432;2022-10-01T00:02:05;32.30;;;24.08;;
4021;SDS011;2025;48.260;16.432;2022-10-01T00:04:33;27.48;;;24.42;;
4021;SDS011;2025;48.260;16.432;2022-10-01T00:07:01;25.05;;;22.02;;
4021;SDS011;2025;48.260;16.432;2022-10-01T00:12:00;27.10;;;24.17;;
4021;SDS011;2025;48.260;16.432;2022-10-01T00:14:28;26.65;;;23.85;;
4021;SDS011;2025;48.260;16.432;2022-10-01T00:16:55;28.75;;;24.40;;
4021;SDS011;2025;48.260;16.432;2022-10-01T00:19:22;28.15;;;23.20;;
4021;SDS011;2025;48.260;16.432;2022-10-01T00:21:49;28.73;;;24.42;;
4021;SDS011;2025;48.260;16.432;2022-10-01T00:24:16;28.23;;;24.30;;
4021;SDS011;2025;48.260;16.432;2022-10-01T00:26:43;28.90;;;25.60;;
4021;SDS011;2025;48.260;16.432;2022-10-01T00:29:12;30.83;;;25.40;;
4021;SDS011;2025;48.260;16.432;2022-10-01T00:31:42;27.77;;;23.80;;
4021;SDS011;2025;48.260;16.432;2022-10-01T00:34:09;27.10;;;24.20;;
4021;SDS011;2025;48.260;16.432;2022-10-01T00:36:37;26.92;;;23.40;;
4021;SDS011;2025;48.260;16.432;2022-10-01T00:39:05;26.95;;;23.70;;
4021;SDS011;2025;48.260;16.432;2022-10-01T00:41:32;25.25;;;21.80;;
4021;SDS011;2025;48.260;16.432;2022-10-01T00:44:00;24.90;;;22.10;;
4021;SDS011;2025;48.260;16.432;2022-10-01T00:46:32;24.30;;;21.80;;
4021;SDS011;2025;48.260;16.432;2022-10-01T00:49:06;24.33;;;21.70;;
4021;SDS011;2025;48.260;16.432;2022-10-01T00:51:38;28.13;;;22.38;;
4021;SDS011;2025;48.260;16.432;2022-10-01T00:54:09;24.55;;;21.70;;
4021;SDS011;2025;48.260;16.432;2022-10-01T00:56:38;28.80;;;21.98;;
4021;SDS011;2025;48.260;16.432;2022-10-01T00:59:07;28.05;;;21.95;;
4021;SDS011;2025;48.260;16.432;2022-10-01T01:01:36;25.23;;;22.38;;
4021;SDS011;2025;48.260;16.432;2022-10-01T01:04:03;28.15;;;22.05;;
4021;SDS011;2025;48.260;16.432;2022-10-01T01:06:41;26.48;;;22.13;;
4021;SDS011;2025;48.260;16.432;2022-10-01T01:09:09;26.48;;;22.55;;
4021;SDS011;2025;48.260;16.432;2022-10-01T01:11:37;26.52;;;21.60;;
4021;SDS011;2025;48.260;16.432;2022-10-01T01:14:14;25.27;;;22.52;;
4021;SDS011;2025;48.260;16.432;2022-10-01T01:16:48;23.48;;;20.98;;
4021;SDS011;2025;48.260;16.432;2022-10-01T01:19:24;25.88;;;21.15;;
4021;SDS011;2025;48.260;16.432;2022-10-01T01:22:04;24.42;;;20.80;;
4021;SDS011;2025;48.260;16.432;2022-10-01T01:24:39;26.63;;;22.45;;
4021;SDS011;2025;48.260;16.432;2022-10-01T01:27:25;24.65;;;22.05;;
4021;SDS011;2025;48.260;16.432;2022-10-01T01:29:58;22.85;;;20.45;;
4021;SDS011;2025;48.260;16.432;2022-10-01T01:32:30;23.45;;;20.80;;
4021;SDS011;2025;48.260;16.432;2022-10-01T01:35:03;21.75;;;19.10;;
4021;SDS011;2025;48.260;16.432;2022-10-01T01:37:34;23.40;;;19.87;;
4021;SDS011;2025;48.260;16.432;2022-10-01T01:40:11;23.45;;;20.92;;
4021;SDS011;2025;48.260;16.432;2022-10-01T01:42:41;25.05;;;20.77;;
4021;SDS011;2025;48.260;16.432;2022-10-01T01:45:13;26.35;;;22.00;;
4021;SDS011;2025;48.260;16.432;2022-10-01T01:47:45;28.83;;;22.08;;
4021;SDS011;2025;48.260;16.432;2022-10-01T01:50:13;22.90;;;19.90;;
4021;SDS011;2025;48.260;16.432;2022-10-01T01:52:42;22.77;;;19.90;;
4021;SDS011;2025;48.260;16.432;2022-10-01T01:55:10;23.98;;;19.67;;
4021;SDS011;2025;48.260;16.432;2022-10-01T01:57:38;23.05;;;20.45;;
4021;SDS011;2025;48.260;16.432;2022-10-01T02:00:07;25.58;;;20.08;;
4021;SDS011;2025;48.260;16.432;2022-10-01T02:02:37;23.20;;;19.95;;
4021;SDS011;2025;48.260;16.432;2022-10-01T02:05:07;22.75;;;19.27;;
4021;SDS011;2025;48.260;16.432;2022-10-01T02:10:40;26.25;;;21.75;;
4021;SDS011;2025;48.260;16.432;2022-10-01T02:13:26;27.52;;;22.17;;
4021;SDS011;2025;48.260;16.432;2022-10-01T02:16:05;24.52;;;20.58;;
4021;SDS011;2025;48.260;16.432;2022-10-01T02:18:47;23.92;;;20.92;;
4021;SDS011;2025;48.260;16.432;2022-10-01T02:21:18;25.52;;;21.48;;
4021;SDS011;2025;48.260;16.432;2022-10-01T02:23:50;24.35;;;21.85;;
4021;SDS011;2025;48.260;16.432;2022-10-01T02:26:22;27.65;;;23.38;;
4021;SDS011;2025;48.260;16.432;2022-10-01T02:28:52;30.77;;;23.42;;
4021;SDS011;2025;48.260;16.432;2022-10-01T02:31:24;25.67;;;22.95;;
4021;SDS011;2025;48.260;16.432;2022-10-01T02:33:55;26.83;;;23.58;;
4021;SDS011;2025;48.260;16.432;2022-10-01T02:38:53;34.63;;;23.92;;
4021;SDS011;2025;48.260;16.432;2022-10-01T02:41:23;28.08;;;23.63;;
4021;SDS011;2025;48.260;16.432;2022-10-01T02:43:55;31.33;;;24.45;;
4021;SDS011;2025;48.260;16.432;2022-10-01T02:46:26;26.63;;;22.73;;
4021;SDS011;2025;48.260;16.432;2022-10-01T02:49:01;33.85;;;24.95;;
4021;SDS011;2025;48.260;16.432;2022-10-01T02:51:31;33.72;;;24.20;;
4021;SDS011;2025;48.260;16.432;2022-10-01T02:54:06;31.13;;;24.77;;
4021;SDS011;2025;48.260;16.432;2022-10-01T02:56:39;32.25;;;24.98;;
4021;SDS011;2025;48.260;16.432;2022-10-01T02:59:24;25.98;;;22.38;;
4021;SDS011;2025;48.260;16.432;2022-10-01T03:01:51;27.52;;;23.98;;
4021;SDS011;2025;48.260;16.432;2022-10-01T03:04:20;31.13;;;23.88;;
4021;SDS011;2025;48.260;16.432;2022-10-01T03:06:47;29.00;;;23.73;;
4021;SDS011;2025;48.260;16.432;2022-10-01T03:09:16;30.70;;;24.55;;
4021;SDS011;2025;48.260;16.432;2022-10-01T03:11:42;31.55;;;24.33;;
4021;SDS011;2025;48.260;16.432;2022-10-01T03:14:10;30.73;;;24.33;;
4021;SDS011;2025;48.260;16.432;2022-10-01T03:16:36;27.92;;;24.35;;
4021;SDS011;2025;48.260;16.432;2022-10-01T03:19:03;27.60;;;23.38;;
4021;SDS011;2025;48.260;16.432;2022-10-01T03:21:32;32.22;;;24.15;;
4021;SDS011;2025;48.260;16.432;2022-10-01T03:23:59;32.78;;;25.00;;
4021;SDS011;2025;48.260;16.432;2022-10-01T03:26:26;30.20;;;24.58;;
4021;SDS011;2025;48.260;16.432;2022-10-01T03:28:53;28.67;;;23.67;;
4021;SDS011;2025;48.260;16.432;2022-10-01T03:31:20;32.00;;;25.33;;
4021;SDS011;2025;48.260;16.432;2022-10-01T03:33:46;36.50;;;27.08;;
4021;SDS011;2025;48.260;16.432;2022-10-01T03:36:13;34.85;;;27.83;;
4021;SDS011;2025;48.260;16.432;2022-10-01T03:38:42;30.73;;;25.65;;
4021;SDS011;2025;48.260;16.432;2022-10-01T03:41:09;35.03;;;25.77;;
4021;SDS011;2025;48.260;16.432;2022-10-01T03:43:36;42.63;;;26.90;;
4021;SDS011;2025;48.260;16.432;2022-10-01T03:46:02;36.65;;;27.05;;
4021;SDS011;2025;48.260;16.432;2022-10-01T03:48:29;36.08;;;28.67;;
4021;SDS011;2025;48.260;16.432;2022-10-01T03:50:57;39.80;;;28.70;;
4021;SDS011;2025;48.260;16.432;2022-10-01T03:53:25;31.27;;;25.95;;
4021;SDS011;2025;48.260;16.432;2022-10-01T03:55:55;34.80;;;26.85;;
4021;SDS011;2025;48.260;16.432;2022-10-01T03:58:23;34.85;;;26.88;;
4021;SDS011;2025;48.260;16.432;2022-10-01T04:00:50;32.63;;;25.95;;
4021;SDS011;2025;48.260;16.432;2022-10-01T04:03:19;38.88;;;27.35;;
4021;SDS011;2025;48.260;16.432;2022-10-01T04:05:47;43.50;;;28.50;;
4021;SDS011;2025;48.260;16.432;2022-10-01T04:08:13;37.30;;;27.42;;
4021;SDS011;2025;48.260;16.432;2022-10-01T04:10:41;39.67;;;29.58;;
4021;SDS011;2025;48.260;16.432;2022-10-01T04:13:09;42.92;;;32.08;;
4021;SDS011;2025;48.260;16.432;2022-10-01T04:15:36;44.60;;;32.78;;
4021;SDS011;2025;48.260;16.432;2022-10-01T04:18:04;40.67;;;30.25;;
4021;SDS011;2025;48.260;16.432;2022-10-01T04:20:31;40.08;;;29.83;;
4021;SDS011;2025;48.260;16.432;2022-10-01T04:22:59;39.28;;;30.67;;
4021;SDS011;2025;48.260;16.432;2022-10-01T04:25:26;32.58;;;27.55;;
4021;SDS011;2025;48.260;16.432;2022-10-01T04:27:54;38.53;;;29.25;;
4021;SDS011;2025;48.260;16.432;2022-10-01T04:30:25;37.28;;;29.10;;
4021;SDS011;2025;48.260;16.432;2022-10-01T04:32:53;38.38;;;29.25;;
4021;SDS011;2025;48.260;16.432;2022-10-01T04:35:20;37.00;;;29.13;;
4021;SDS011;2025;48.260;16.432;2022-10-01T04:37:47;34.75;;;27.67;;
4021;SDS011;2025;48.260;16.432;2022-10-01T04:40:21;33.35;;;25.55;;
4021;SDS011;2025;48.260;16.432;2022-10-01T04:42:48;34.30;;;26.55;;
4021;SDS011;2025;48.260;16.432;2022-10-01T04:45:15;35.45;;;26.90;;
4021;SDS011;2025;48.260;16.432;2022-10-01T04:47:50;35.00;;;27.17;;
4021;SDS011;2025;48.260;16.432;2022-10-01T04:50:19;40.28;;;29.55;;
4021;SDS011;2025;48.260;16.432;2022-10-01T04:52:47;40.88;;;28.77;;
4021;SDS011;2025;48.260;16.432;2022-10-01T04:55:15;36.88;;;28.52;;
4021;SDS011;2025;48.260;16.432;2022-10-01T04:57:43;35.25;;;28.08;;
4021;SDS011;2025;48.260;16.432;2022-10-01T05:00:12;36.88;;;27.98;;
4021;SDS011;2025;48.260;16.432;2022-10-01T05:02:42;37.28;;;29.38;;
4021;SDS011;2025;48.260;16.432;2022-10-01T05:05:11;43.13;;;30.75;;
4021;SDS011;2025;48.260;16.432;2022-10-01T05:07:39;38.03;;;28.98;;
4021;SDS011;2025;48.260;16.432;2022-10-01T05:10:06;35.53;;;29.27;;
4021;SDS011;2025;48.260;16.432;2022-10-01T05:12:36;36.17;;;28.38;;
4021;SDS011;2025;48.260;16.432;2022-10-01T05:15:03;39.45;;;27.90;;
4021;SDS011;2025;48.260;16.432;2022-10-01T05:17:31;34.22;;;27.17;;
4021;SDS011;2025;48.260;16.432;2022-10-01T05:19:58;35.75;;;26.80;;
4021;SDS011;2025;48.260;16.432;2022-10-01T05:22:27;33.00;;;25.48;;
4021;SDS011;2025;48.260;16.432;2022-10-01T05:24:54;32.65;;;25.80;;
4021;SDS011;2025;48.260;16.432;2022-10-01T05:27:24;29.88;;;25.10;;
4021;SDS011;2025;48.260;16.432;2022-10-01T05:29:51;30.95;;;25.80;;
4021;SDS011;2025;48.260;16.432;2022-10-01T05:32:18;28.08;;;23.77;;
4021;SDS011;2025;48.260;16.432;2022-10-01T05:34:45;28.70;;;22.55;;
4021;SDS011;2025;48.260;16.432;2022-10-01T05:37:12;32.83;;;23.40;;
4021;SDS011;2025;48.260;16.432;2022-10-01T05:39:41;28.42;;;21.67;;
4021;SDS011;2025;48.260;16.432;2022-10-01T05:42:08;25.90;;;20.50;;
4021;SDS011;2025;48.260;16.432;2022-10-01T05:44:35;33.35;;;21.50;;
4021;SDS011;2025;48.260;16.432;2022-10-01T05:47:04;24.98;;;19.30;;
4021;SDS011;2025;48.260;16.432;2022-10-01T05:49:31;24.00;;;19.40;;
4021;SDS011;2025;48.260;16.432;2022-10-01T05:51:58;19.92;;;17.83;;
4021;SDS011;2025;48.260;16.432;2022-10-01T05:54:26;23.60;;;17.92;;
4021;SDS011;2025;48.260;16.432;2022-10-01T05:56:55;19.15;;;17.13;;
4021;SDS011;2025;48.260;16.432;2022-10-01T05:59:22;22.42;;;17.10;;
4021;SDS011;2025;48.260;16.432;2022-10-01T06:01:49;22.98;;;17.67;;
4021;SDS011;2025;48.260;16.432;2022-10-01T06:04:16;19.83;;;17.42;;
4021;SDS011;2025;48.260;16.432;2022-10-01T06:06:43;19.98;;;15.77;;
4021;SDS011;2025;48.260;16.432;2022-10-01T06:09:10;20.83;;;16.95;;
4021;SDS011;2025;48.260;16.432;2022-10-01T06:11:38;21.35;;;18.10;;
4021;SDS011;2025;48.260;16.432;2022-10-01T06:14:07;18.38;;;16.48;;
4021;SDS011;2025;48.260;16.432;2022-10-01T06:16:34;21.05;;;16.40;;
4021;SDS011;2025;48.260;16.432;2022-10-01T06:19:01;19.83;;;15.98;;
4021;SDS011;2025;48.260;16.432;2022-10-01T06:21:28;20.95;;;17.38;;
4021;SDS011;2025;48.260;16.432;2022-10-01T06:23:55;20.75;;;16.55;;
4021;SDS011;2025;48.260;16.432;2022-10-01T06:26:22;20.45;;;16.88;;
4021;SDS011;2025;48.260;16.432;2022-10-01T06:28:50;18.42;;;15.90;;
4021;SDS011;2025;48.260;16.432;2022-10-01T06:31:18;17.95;;;16.08;;
4021;SDS011;2025;48.260;16.432;2022-10-01T06:33:46;20.92;;;16.13;;
4021;SDS011;2025;48.260;16.432;2022-10-01T06:36:13;20.08;;;15.68;;
4021;SDS011;2025;48.260;16.432;2022-10-01T06:38:40;17.98;;;15.20;;
4021;SDS011;2025;48.260;16.432;2022-10-01T06:41:08;17.35;;;14.98;;
4021;SDS011;2025;48.260;16.432;2022-10-01T06:43:35;17.63;;;14.32;;
4021;SDS011;2025;48.260;16.432;2022-10-01T06:46:02;15.30;;;13.80;;
4021;SDS011;2025;48.260;16.432;2022-10-01T06:48:32;18.05;;;14.50;;
4021;SDS011;2025;48.260;16.432;2022-10-01T06:51:00;17.27;;;14.88;;
4021;SDS011;2025;48.260;16.432;2022-10-01T06:53:27;17.45;;;14.10;;
4021;SDS011;2025;48.260;16.432;2022-10-01T06:55:55;18.05;;;15.13;;
4021;SDS011;2025;48.260;16.432;2022-10-01T06:58:22;17.15;;;14.75;;
4021;SDS011;2025;48.260;16.432;2022-10-01T07:00:50;18.77;;;15.52;;
4021;SDS011;2025;48.260;16.432;2022-10-01T07:03:24;16.08;;;14.30;;
4021;SDS011;2025;48.260;16.432;2022-10-01T07:05:52;16.85;;;14.63;;
4021;SDS011;2025;48.260;16.432;2022-10-01T07:08:19;16.98;;;13.63;;
4021;SDS011;2025;48.260;16.432;2022-10-01T07:10:46;13.48;;;12.18;;
4021;SDS011;2025;48.260;16.432;2022-10-01T07:13:14;13.50;;;12.07;;
4021;SDS011;2025;48.260;16.432;2022-10-01T07:15:42;12.82;;;11.63;;
4021;SDS011;2025;48.260;16.432;2022-10-01T07:18:10;15.00;;;13.05;;
4021;SDS011;2025;48.260;16.432;2022-10-01T07:20:38;16.10;;;13.90;;
4021;SDS011;2025;48.260;16.432;2022-10-01T07:23:07;15.88;;;13.90;;
4021;SDS011;2025;48.260;16.432;2022-10-01T07:25:36;15.90;;;13.38;;
4021;SDS011;2025;48.260;16.432;2022-10-01T07:28:04;21.20;;;12.35;;
4021;SDS011;2025;48.260;16.432;2022-10-01T07:30:32;15.98;;;13.00;;
4021;SDS011;2025;48.260;16.432;2022-10-01T07:32:59;15.15;;;13.65;;
4021;SDS011;2025;48.260;16.432;2022-10-01T07:35:26;14.82;;;13.35;;
4021;SDS011;2025;48.260;16.432;2022-10-01T07:37:53;13.93;;;12.52;;
4021;SDS011;2025;48.260;16.432;2022-10-01T07:40:22;16.73;;;13.27;;
4021;SDS011;2025;48.260;16.432;2022-10-01T07:42:52;14.07;;;12.50;;
4021;SDS011;2025;48.260;16.432;2022-10-01T07:45:20;19.50;;;12.57;;
4021;SDS011;2025;48.260;16.432;2022-10-01T07:47:51;13.50;;;12.30;;
4021;SDS011;2025;48.260;16.432;2022-10-01T07:50:19;13.63;;;12.32;;
4021;SDS011;2025;48.260;16.432;2022-10-01T07:52:49;13.60;;;11.43;;
4021;SDS011;2025;48.260;16.432;2022-10-01T07:55:17;15.37;;;11.43;;
4021;SDS011;2025;48.260;16.432;2022-10-01T07:57:49;11.20;;;10.32;;
4021;SDS011;2025;48.260;16.432;2022-10-01T08:00:17;11.02;;;9.88;;
4021;SDS011;2025;48.260;16.432;2022-10-01T08:02:47;13.88;;;9.95;;
4021;SDS011;2025;48.260;16.432;2022-10-01T08:05:16;10.75;;;9.57;;
4021;SDS011;2025;48.260;16.432;2022-10-01T08:07:42;9.70;;;8.85;;
4021;SDS011;2025;48.260;16.432;2022-10-01T08:10:09;9.55;;;8.65;;
4021;SDS011;2025;48.260;16.432;2022-10-01T08:12:36;10.75;;;8.45;;
4021;SDS011;2025;48.260;16.432;2022-10-01T08:15:05;8.45;;;7.78;;
4021;SDS011;2025;48.260;16.432;2022-10-01T08:17:34;9.00;;;8.20;;
4021;SDS011;2025;48.260;16.432;2022-10-01T08:20:02;8.05;;;7.47;;
4021;SDS011;2025;48.260;16.432;2022-10-01T08:22:29;7.53;;;6.75;;
4021;SDS011;2025;48.260;16.432;2022-10-01T08:24:56;7.18;;;6.78;;
4021;SDS011;2025;48.260;16.432;2022-10-01T08:27:23;9.52;;;7.43;;
4021;SDS011;2025;48.260;16.432;2022-10-01T08:29:50;7.85;;;6.38;;
4021;SDS011;2025;48.260;16.432;2022-10-01T08:32:19;7.18;;;6.60;;
4021;SDS011;2025;48.260;16.432;2022-10-01T08:34:47;6.78;;;6.22;;
4021;SDS011;2025;48.260;16.432;2022-10-01T08:37:14;8.43;;;6.53;;
4021;SDS011;2025;48.260;16.432;2022-10-01T08:39:41;6.80;;;6.40;;
4021;SDS011;2025;48.260;16.432;2022-10-01T08:42:11;6.47;;;5.70;;
4021;SDS011;2025;48.260;16.432;2022-10-01T08:44:50;8.70;;;6.15;;
4021;SDS011;2025;48.260;16.432;2022-10-01T08:47:22;5.88;;;5.32;;
4021;SDS011;2025;48.260;16.432;2022-10-01T08:49:55;5.82;;;5.53;;
4021;SDS011;2025;48.260;16.432;2022-10-01T08:52:27;6.00;;;5.70;;
4021;SDS011;2025;48.260;16.432;2022-10-01T08:54:57;5.82;;;5.32;;
4021;SDS011;2025;48.260;16.432;2022-10-01T08:57:28;7.60;;;5.28;;
4021;SDS011;2025;48.260;16.432;2022-10-01T08:59:58;6.25;;;5.53;;
4021;SDS011;2025;48.260;16.432;2022-10-01T09:02:29;6.13;;;5.47;;
4021;SDS011;2025;48.260;16.432;2022-10-01T09:04:58;5.90;;;5.30;;
4021;SDS011;2025;48.260;16.432;2022-10-01T09:10:21;5.25;;;4.90;;
4021;SDS011;2025;48.260;16.432;2022-10-01T09:13:05;6.28;;;5.10;;
4021;SDS011;2025;48.260;16.432;2022-10-01T09:15:55;5.57;;;5.18;;
4021;SDS011;2025;48.260;16.432;2022-10-01T09:18:33;6.72;;;5.47;;
4021;SDS011;2025;48.260;16.432;2022-10-01T09:21:12;5.95;;;5.50;;
4021;SDS011;2025;48.260;16.432;2022-10-01T09:23:47;5.57;;;5.18;;
4021;SDS011;2025;48.260;16.432;2022-10-01T09:26:24;5.85;;;5.20;;
4021;SDS011;2025;48.260;16.432;2022-10-01T09:28:50;5.07;;;4.78;;
4021;SDS011;2025;48.260;16.432;2022-10-01T09:31:20;5.32;;;5.03;;
4021;SDS011;2025;48.260;16.432;2022-10-01T09:33:55;5.95;;;4.90;;
4021;SDS011;2025;48.260;16.432;2022-10-01T09:36:30;7.07;;;6.40;;
4021;SDS011;2025;48.260;16.432;2022-10-01T09:39:04;6.65;;;5.15;;
4021;SDS011;2025;48.260;16.432;2022-10-01T09:41:40;5.63;;;5.13;;
4021;SDS011;2025;48.260;16.432;2022-10-01T09:44:12;9.32;;;6.03;;
4021;SDS011;2025;48.260;16.432;2022-10-01T09:46:42;6.95;;;5.38;;
4021;SDS011;2025;48.260;16.432;2022-10-01T09:49:12;6.15;;;5.65;;
4021;SDS011;2025;48.260;16.432;2022-10-01T09:51:53;5.82;;;5.22;;
4021;SDS011;2025;48.260;16.432;2022-10-01T09:54:28;6.38;;;5.97;;
4021;SDS011;2025;48.260;16.432;2022-10-01T09:57:00;6.30;;;5.70;;
4021;SDS011;2025;48.260;16.432;2022-10-01T09:59:33;8.85;;;5.82;;
4021;SDS011;2025;48.260;16.432;2022-10-01T10:02:03;6.17;;;5.60;;
4021;SDS011;2025;48.260;16.432;2022-10-01T10:04:42;5.47;;;5.15;;
4021;SDS011;2025;48.260;16.432;2022-10-01T10:07:10;7.88;;;5.30;;
4021;SDS011;2025;48.260;16.432;2022-10-01T10:09:43;4.68;;;4.38;;
4021;SDS011;2025;48.260;16.432;2022-10-01T10:12:19;5.30;;;4.80;;
4021;SDS011;2025;48.260;16.432;2022-10-01T10:14:53;5.15;;;4.75;;
4021;SDS011;2025;48.260;16.432;2022-10-01T10:17:21;4.75;;;4.38;;
4021;SDS011;2025;48.260;16.432;2022-10-01T10:19:50;9.38;;;4.68;;
4021;SDS011;2025;48.260;16.432;2022-10-01T10:22:20;4.65;;;4.40;;
4021;SDS011;2025;48.260;16.432;2022-10-01T10:24:49;4.73;;;4.43;;
4021;SDS011;2025;48.260;16.432;2022-10-01T10:27:20;6.63;;;4.43;;
4021;SDS011;2025;48.260;16.432;2022-10-01T10:29:59;5.00;;;4.70;;
4021;SDS011;2025;48.260;16.432;2022-10-01T10:32:28;4.35;;;4.15;;
4021;SDS011;2025;48.260;16.432;2022-10-01T10:34:57;4.57;;;4.28;;
4021;SDS011;2025;48.260;16.432;2022-10-01T10:37:30;6.43;;;4.90;;
4021;SDS011;2025;48.260;16.432;2022-10-01T10:40:02;4.90;;;4.60;;
4021;SDS011;2025;48.260;16.432;2022-10-01T10:42:33;4.65;;;4.35;;
4021;SDS011;2025;48.260;16.432;2022-10-01T10:45:03;5.28;;;4.80;;
4021;SDS011;2025;48.260;16.432;2022-10-01T10:47:43;4.65;;;4.15;;
4021;SDS011;2025;48.260;16.432;2022-10-01T10:50:17;6.13;;;4.05;;
4021;SDS011;2025;48.260;16.432;2022-10-01T10:52:55;4.85;;;3.72;;
4021;SDS011;2025;48.260;16.432;2022-10-01T10:55:25;4.70;;;4.30;;
4021;SDS011;2025;48.260;16.432;2022-10-01T10:57:54;4.00;;;3.80;;
4021;SDS011;2025;48.260;16.432;2022-10-01T11:00:22;4.30;;;3.80;;
4021;SDS011;2025;48.260;16.432;2022-10-01T11:02:51;4.60;;;4.30;;
4021;SDS011;2025;48.260;16.432;2022-10-01T11:05:23;3.42;;;3.22;;
4021;SDS011;2025;48.260;16.432;2022-10-01T11:07:56;4.25;;;3.95;;
4021;SDS011;2025;48.260;16.432;2022-10-01T11:10:31;5.97;;;4.20;;
4021;SDS011;2025;48.260;16.432;2022-10-01T11:13:12;2.50;;;2.40;;
4021;SDS011;2025;48.260;16.432;2022-10-01T11:15:54;2.05;;;1.95;;
4021;SDS011;2025;48.260;16.432;2022-10-01T11:18:41;4.03;;;1.80;;
4021;SDS011;2025;48.260;16.432;2022-10-01T11:21:29;2.60;;;2.17;;
4021;SDS011;2025;48.260;16.432;2022-10-01T11:24:26;2.20;;;1.80;;
4021;SDS011;2025;48.260;16.432;2022-10-01T11:29:39;2.00;;;1.90;;
4021;SDS011;2025;48.260;16.432;2022-10-01T11:32:19;1.88;;;1.77;;
4021;SDS011;2025;48.260;16.432;2022-10-01T11:34:56;1.65;;;1.50;;
4021;SDS011;2025;48.260;16.432;2022-10-01T11:37:53;1.70;;;1.60;;
4021;SDS011;2025;48.260;16.432;2022-10-01T11:40:31;4.65;;;1.58;;
4021;SDS011;2025;48.260;16.432;2022-10-01T11:43:03;1.58;;;1.58;;
4021;SDS011;2025;48.260;16.432;2022-10-01T11:45:39;2.45;;;2.20;;
4021;SDS011;2025;48.260;16.432;2022-10-01T11:48:10;1.58;;;1.52;;
4021;SDS011;2025;48.260;16.432;2022-10-01T11:50:43;2.38;;;1.73;;
4021;SDS011;2025;48.260;16.432;2022-10-01T11:53:16;1.80;;;1.70;;
4021;SDS011;2025;48.260;16.432;2022-10-01T11:55:50;2.22;;;1.30;;
4021;SDS011;2025;48.260;16.432;2022-10-01T11:58:38;1.40;;;1.30;;
4021;SDS011;2025;48.260;16.432;2022-10-01T12:01:23;1.10;;;1.00;;
4021;SDS011;2025;48.260;16.432;2022-10-01T12:03:57;1.15;;;1.05;;
4021;SDS011;2025;48.260;16.432;2022-10-01T12:06:33;1.95;;;0.98;;
4021;SDS011;2025;48.260;16.432;2022-10-01T12:09:08;1.10;;;1.10;;
4021;SDS011;2025;48.260;16.432;2022-10-01T12:11:42;1.50;;;1.00;;
4021;SDS011;2025;48.260;16.432;2022-10-01T12:14:15;2.85;;;1.00;;
4021;SDS011;2025;48.260;16.432;2022-10-01T12:16:47;1.58;;;1.10;;
4021;SDS011;2025;48.260;16.432;2022-10-01T12:19:20;1.20;;;1.00;;
4021;SDS011;2025;48.260;16.432;2022-10-01T12:21:51;1.10;;;1.10;;
4021;SDS011;2025;48.260;16.432;2022-10-01T12:24:26;1.20;;;1.20;;
4021;SDS011;2025;48.260;16.432;2022-10-01T12:27:09;1.08;;;1.08;;
4021;SDS011;2025;48.260;16.432;2022-10-01T12:29:49;1.02;;;1.02;;
4021;SDS011;2025;48.260;16.432;2022-10-01T12:32:28;2.00;;;1.00;;
4021;SDS011;2025;48.260;16.432;2022-10-01T12:35:06;2.25;;;1.10;;
4021;SDS011;2025;48.260;16.432;2022-10-01T12:37:47;1.08;;;1.08;;
4021;SDS011;2025;48.260;16.432;2022-10-01T12:40:29;1.10;;;1.00;;
4021;SDS011;2025;48.260;16.432;2022-10-01T12:43:16;3.33;;;1.17;;
4021;SDS011;2025;48.260;16.432;2022-10-01T12:46:02;2.05;;;0.90;;
4021;SDS011;2025;48.260;16.432;2022-10-01T12:48:36;1.00;;;1.00;;
4021;SDS011;2025;48.260;16.432;2022-10-01T12:51:17;2.25;;;1.50;;
4021;SDS011;2025;48.260;16.432;2022-10-01T12:53:58;1.20;;;1.10;;
4021;SDS011;2025;48.260;16.432;2022-10-01T12:56:41;3.15;;;1.15;;
4021;SDS011;2025;48.260;16.432;2022-10-01T12:59:27;5.43;;;1.25;;
4021;SDS011;2025;48.260;16.432;2022-10-01T13:02:10;1.75;;;1.40;;
4021;SDS011;2025;48.260;16.432;2022-10-01T13:07:51;1.35;;;1.30;;
4021;SDS011;2025;48.260;16.432;2022-10-01T13:10:46;3.15;;;1.63;;
4021;SDS011;2025;48.260;16.432;2022-10-01T13:13:23;1.33;;;1.33;;
4021;SDS011;2025;48.260;16.432;2022-10-01T13:15:53;5.03;;;1.60;;
4021;SDS011;2025;48.260;16.432;2022-10-01T13:18:30;1.63;;;1.52;;
4021;SDS011;2025;48.260;16.432;2022-10-01T13:21:05;1.70;;;1.45;;
4021;SDS011;2025;48.260;16.432;2022-10-01T13:23:39;1.63;;;1.52;;
4021;SDS011;2025;48.260;16.432;2022-10-01T13:26:14;1.40;;;1.30;;
4021;SDS011;2025;48.260;16.432;2022-10-01T13:28:54;2.97;;;1.40;;
4021;SDS011;2025;48.260;16.432;2022-10-01T13:31:35;1.88;;;1.52;;
4021;SDS011;2025;48.260;16.432;2022-10-01T13:36:51;2.67;;;1.58;;
4021;SDS011;2025;48.260;16.432;2022-10-01T13:39:21;2.08;;;1.50;;
4021;SDS011;2025;48.260;16.432;2022-10-01T13:41:50;1.80;;;1.70;;
4021;SDS011;2025;48.260;16.432;2022-10-01T13:44:24;1.73;;;1.52;;
4021;SDS011;2025;48.260;16.432;2022-10-01T13:46:58;2.97;;;1.83;;
4021;SDS011;2025;48.260;16.432;2022-10-01T13:49:30;1.90;;;1.80;;
4021;SDS011;2025;48.260;16.432;2022-10-01T13:51:58;3.20;;;1.70;;
4021;SDS011;2025;48.260;16.432;2022-10-01T13:54:29;2.45;;;2.00;;
4021;SDS011;2025;48.260;16.432;2022-10-01T13:57:07;1.45;;;1.27;;
4021;SDS011;2025;48.260;16.432;2022-10-01T13:59:36;1.40;;;1.30;;
4021;SDS011;2025;48.260;16.432;2022-10-01T14:02:19;1.45;;;1.42;;
4021;SDS011;2025;48.260;16.432;2022-10-01T14:04:56;1.33;;;1.23;;
4021;SDS011;2025;48.260;16.432;2022-10-01T14:07:34;2.70;;;1.50;;
4021;SDS011;2025;48.260;16.432;2022-10-01T14:10:04;1.60;;;1.53;;
4021;SDS011;2025;48.260;16.432;2022-10-01T14:12:32;1.83;;;1.50;;
4021;SDS011;2025;48.260;16.432;2022-10-01T14:15:21;2.20;;;1.65;;
4021;SDS011;2025;48.260;16.432;2022-10-01T14:18:17;1.40;;;1.40;;
4021;SDS011;2025;48.260;16.432;2022-10-01T14:20:50;3.45;;;1.40;;
4021;SDS011;2025;48.260;16.432;2022-10-01T14:23:24;3.22;;;1.58;;
4021;SDS011;2025;48.260;16.432;2022-10-01T14:25:58;2.20;;;1.70;;
4021;SDS011;2025;48.260;16.432;2022-10-01T14:28:39;1.73;;;1.63;;
4021;SDS011;2025;48.260;16.432;2022-10-01T14:31:19;3.33;;;1.80;;
4021;SDS011;2025;48.260;16.432;2022-10-01T14:34:03;3.25;;;1.45;;
4021;SDS011;2025;48.260;16.432;2022-10-01T14:36:43;1.45;;;1.45;;
4021;SDS011;2025;48.260;16.432;2022-10-01T14:39:13;2.00;;;1.67;;
4021;SDS011;2025;48.260;16.432;2022-10-01T14:41:42;3.42;;;1.60;;
4021;SDS011;2025;48.260;16.432;2022-10-01T14:44:20;1.77;;;1.70;;
4021;SDS011;2025;48.260;16.432;2022-10-01T14:46:51;1.67;;;1.58;;
4021;SDS011;2025;48.260;16.432;2022-10-01T14:49:21;2.80;;;1.60;;
4021;SDS011;2025;48.260;16.432;2022-10-01T14:51:55;4.67;;;1.60;;
4021;SDS011;2025;48.260;16.432;2022-10-01T14:54:26;1.70;;;1.60;;
4021;SDS011;2025;48.260;16.432;2022-10-01T14:56:55;1.60;;;1.50;;
4021;SDS011;2025;48.260;16.432;2022-10-01T14:59:26;2.50;;;1.70;;
4021;SDS011;2025;48.260;16.432;2022-10-01T15:02:00;2.72;;;1.70;;
4021;SDS011;2025;48.260;16.432;2022-10-01T15:04:29;3.13;;;1.52;;
4021;SDS011;2025;48.260;16.432;2022-10-01T15:07:02;1.50;;;1.40;;
4021;SDS011;2025;48.260;16.432;2022-10-01T15:09:31;1.77;;;1.67;;
4021;SDS011;2025;48.260;16.432;2022-10-01T15:11:59;1.65;;;1.50;;
4021;SDS011;2025;48.260;16.432;2022-10-01T15:14:28;2.15;;;1.67;;
4021;SDS011;2025;48.260;16.432;2022-10-01T15:16:56;1.70;;;1.60;;
4021;SDS011;2025;48.260;16.432;2022-10-01T15:19:29;1.80;;;1.70;;
4021;SDS011;2025;48.260;16.432;2022-10-01T15:21:57;2.38;;;1.40;;
4021;SDS011;2025;48.260;16.432;2022-10-01T15:24:29;4.75;;;1.92;;
4021;SDS011;2025;48.260;16.432;2022-10-01T15:27:03;2.38;;;1.60;;
4021;SDS011;2025;48.260;16.432;2022-10-01T15:29:32;2.00;;;1.90;;
4021;SDS011;2025;48.260;16.432;2022-10-01T15:31:59;1.95;;;1.85;;
4021;SDS011;2025;48.260;16.432;2022-10-01T15:34:29;3.50;;;1.90;;